Time;durP1;ratioP1;P1;durP2;ratioP2;P2;SDS_P1;SDS_P2;PMS_P1;PMS_P2;Temp;Humidity;BMP_temperature;BMP_pressure;BME280_temperature;BME280_humidity;BME280_pressure;Samples;Min_cycle;Max_cycle;Signal;HPM_P1;HPM_P2
2022/10/15 00:07:07;;;;;;;2.40;2.00;;;;;17.60;98159.00;;;;16569207;28;20361;-49
2022/10/15 00:15:11;;;;;;;1.37;1.27;;;;;17.70;98167.00;;;;16570358;28;20218;-49
2022/10/15 00:23:14;;;;;;;1.80;1.27;;;;;17.70;98159.00;;;;16589483;28;20293;-48
2022/10/15 00:31:19;;;;;;;1.53;0.93;;;;;17.70;98162.00;;;;16585619;28;20695;-48
2022/10/15 00:39:24;;;;;;;1.17;0.87;;;;;17.80;98162.00;;;;16600290;28;20242;-49
2022/10/15 00:47:34;;;;;;;0.73;0.60;;;;;17.90;98155.00;;;;16584878;28;20227;-49
2022/10/15 00:55:40;;;;;;;0.40;0.40;;;;;17.90;98146.00;;;;16586051;28;20281;-49
2022/10/15 01:03:44;;;;;;;1.57;0.60;;;;;18.10;98134.00;;;;16582641;28;20299;-49
2022/10/15 01:11:48;;;;;;;0.70;0.60;;;;;18.00;98135.00;;;;16587669;28;20310;-50
2022/10/15 01:20:24;;;;;;;1.90;0.47;;;;;17.90;98125.00;;;;16582700;28;20228;-48
2022/10/15 01:28:37;;;;;;;1.40;0.60;;;;;18.10;98121.00;;;;16553927;28;20793;-49
2022/10/15 01:36:48;;;;;;;0.43;0.43;;;;;18.00;98111.00;;;;16583913;28;20555;-48
2022/10/15 01:45:46;;;;;;;1.80;0.50;;;;;18.00;98111.00;;;;16567447;28;20226;-48
2022/10/15 01:54:20;;;;;;;1.30;0.47;;;;;18.10;98109.00;;;;16584665;28;20360;-47
2022/10/15 02:02:23;;;;;;;1.27;0.70;;;;;18.10;98093.00;;;;16577816;28;20821;-47
2022/10/15 02:10:29;;;;;;;1.13;0.70;;;;;18.10;98094.00;;;;16569382;28;20627;-47
2022/10/15 02:18:38;;;;;;;0.30;0.30;;;;;18.10;98096.00;;;;16580270;28;20203;-46
2022/10/15 02:26:42;;;;;;;0.73;0.67;;;;;18.30;98100.00;;;;16576685;28;20277;-47
2022/10/15 02:34:46;;;;;;;0.90;0.30;;;;;18.20;98096.00;;;;16572950;28;20699;-47
2022/10/15 02:42:52;;;;;;;1.77;0.57;;;;;18.40;98107.00;;;;16564306;28;20373;-47
2022/10/15 02:50:55;;;;;;;0.60;0.40;;;;;18.30;98111.00;;;;16579930;28;20227;-47
2022/10/15 02:58:59;;;;;;;1.23;0.40;;;;;18.60;98107.00;;;;16578367;28;20278;-46
2022/10/15 03:07:01;;;;;;;0.80;0.37;;;;;18.40;98109.00;;;;16577992;28;20215;-47
2022/10/15 03:15:08;;;;;;;3.97;0.50;;;;;18.10;98119.00;;;;16558542;28;20559;-47
2022/10/15 03:23:11;;;;;;;1.30;0.40;;;;;18.60;98121.00;;;;16577164;28;20234;-47
2022/10/15 03:31:15;;;;;;;0.50;0.50;;;;;18.40;98118.00;;;;16577449;28;20310;-47
2022/10/15 03:39:21;;;;;;;1.37;0.63;;;;;18.30;98120.00;;;;16566832;28;20230;-47
2022/10/15 03:47:29;;;;;;;1.53;0.40;;;;;18.50;98127.00;;;;16565475;28;20235;-47
2022/10/15 03:55:33;;;;;;;0.40;0.30;;;;;18.80;98142.00;;;;16599955;28;20258;-46
2022/10/15 04:03:38;;;;;;;3.47;0.40;;;;;18.60;98151.00;;;;16591568;28;20237;-47
2022/10/15 04:11:40;;;;;;;3.33;0.67;;;;;19.00;98144.00;;;;16569320;28;20233;-48
2022/10/15 04:19:44;;;;;;;1.07;0.30;;;;;18.80;98152.00;;;;16589369;28;20226;-47
2022/10/15 04:27:49;;;;;;;0.97;0.60;;;;;19.00;98152.00;;;;16587384;28;20645;-47
2022/10/15 04:36:01;;;;;;;2.50;1.07;;;;;19.20;98167.00;;;;16580160;28;20582;-47
2022/10/15 04:44:19;;;;;;;0.60;0.60;;;;;19.10;98172.00;;;;16586571;28;20226;-47
2022/10/15 04:52:29;;;;;;;0.60;0.60;;;;;19.00;98173.00;;;;16586437;28;20750;-47
2022/10/15 05:00:34;;;;;;;1.03;0.30;;;;;18.90;98179.00;;;;16582590;28;20223;-47
2022/10/15 05:09:04;;;;;;;0.50;0.33;;;;;19.00;98178.00;;;;16567397;28;20243;-47
2022/10/15 05:17:08;;;;;;;0.70;0.40;;;;;18.90;98192.00;;;;16559166;28;20211;-47
2022/10/15 05:25:16;;;;;;;0.37;0.37;;;;;18.90;98211.00;;;;16579629;28;20223;-47
2022/10/15 05:33:19;;;;;;;1.07;0.70;;;;;19.10;98215.00;;;;16568589;28;20275;-47
2022/10/15 05:41:25;;;;;;;6.87;6.37;;;;;18.30;98225.00;;;;16552564;28;20241;-47
2022/10/15 05:49:29;;;;;;;8.07;3.17;;;;;18.70;98238.00;;;;16557662;28;20254;-47
2022/10/15 05:57:49;;;;;;;5.10;1.37;;;;;19.00;98229.00;;;;16556693;28;20195;-47
2022/10/15 06:05:52;;;;;;;1.53;0.80;;;;;18.70;98241.00;;;;16554714;28;20222;-47
2022/10/15 06:13:56;;;;;;;1.63;0.73;;;;;18.60;98253.00;;;;16559195;28;20219;-47
2022/10/15 06:21:58;;;;;;;1.00;0.90;;;;;19.00;98268.00;;;;16565626;28;20754;-48
2022/10/15 06:30:02;;;;;;;0.60;0.60;;;;;18.90;98281.00;;;;16562282;28;20229;-47
2022/10/15 06:38:06;;;;;;;0.77;0.53;;;;;18.90;98297.00;;;;16557215;28;20260;-47
2022/10/15 06:46:10;;;;;;;1.37;0.50;;;;;18.70;98316.00;;;;16550752;28;20316;-47
2022/10/15 06:54:12;;;;;;;0.50;0.50;;;;;19.00;98322.00;;;;16545349;28;20238;-47
2022/10/15 07:02:18;;;;;;;1.43;0.70;;;;;18.90;98330.00;;;;16540356;28;20245;-48
2022/10/15 07:10:20;;;;;;;2.53;0.83;;;;;18.90;98338.00;;;;16552422;28;20247;-47
2022/10/15 07:18:24;;;;;;;1.33;1.23;;;;;19.40;98352.00;;;;16545560;28;20597;-48
2022/10/15 07:26:28;;;;;;;1.40;0.83;;;;;19.40;98364.00;;;;16561062;28;20248;-47
2022/10/15 07:34:34;;;;;;;1.20;1.07;;;;;19.40;98365.00;;;;16569537;28;20222;-48
2022/10/15 07:42:37;;;;;;;1.77;1.20;;;;;19.70;98378.00;;;;16569037;28;20228;-49
2022/10/15 07:50:41;;;;;;;2.53;1.10;;;;;19.70;98384.00;;;;16561081;28;20326;-48
2022/10/15 07:58:50;;;;;;;3.33;1.30;;;;;19.80;98379.00;;;;16552870;28;20278;-48
2022/10/15 08:06:54;;;;;;;2.60;0.90;;;;;19.50;98394.00;;;;16565489;28;20231;-47
2022/10/15 08:14:56;;;;;;;5.83;5.23;;;;;20.00;98395.00;;;;16561930;28;20368;-48
2022/10/15 08:23:00;;;;;;;1.60;1.40;;;;;20.10;98395.00;;;;16541410;28;20233;-48
2022/10/15 08:31:03;;;;;;;4.10;2.20;;;;;20.00;98389.00;;;;16576234;28;20317;-48
2022/10/15 08:39:08;;;;;;;2.13;1.33;;;;;20.10;98389.00;;;;16569319;28;20234;-48
2022/10/15 08:47:18;;;;;;;3.37;1.83;;;;;20.00;98388.00;;;;16559844;28;20224;-48
2022/10/15 08:55:22;;;;;;;2.00;1.00;;;;;20.10;98401.00;;;;16574305;28;20224;-48
2022/10/15 09:03:31;;;;;;;2.23;1.30;;;;;20.10;98409.00;;;;16571546;28;20231;-48
2022/10/15 09:11:44;;;;;;;1.40;1.30;;;;;20.30;98397.00;;;;16561151;28;20242;-48
2022/10/15 09:19:47;;;;;;;1.37;1.00;;;;;20.50;98407.00;;;;16568681;28;20219;-48
2022/10/15 09:27:52;;;;;;;3.00;2.33;;;;;20.70;98392.00;;;;16570412;28;20834;-48
2022/10/15 09:35:58;;;;;;;1.20;1.00;;;;;21.00;98404.00;;;;16575783;28;20227;-48
2022/10/15 09:44:02;;;;;;;1.53;1.37;;;;;21.20;98418.00;;;;16565374;28;20707;-48
2022/10/15 09:52:19;;;;;;;0.60;0.60;;;;;21.00;98417.00;;;;16568352;28;20741;-47
2022/10/15 10:00:23;;;;;;;0.97;0.60;;;;;21.00;98426.00;;;;16571170;28;20215;-47
2022/10/15 10:08:29;;;;;;;1.10;0.90;;;;;22.20;98425.00;;;;16578909;28;20223;-48
2022/10/15 10:16:33;;;;;;;1.63;0.93;;;;;21.20;98428.00;;;;16550045;28;20215;-48
2022/10/15 10:24:37;;;;;;;1.10;0.50;;;;;21.90;98419.00;;;;16578113;28;20226;-48
2022/10/15 10:32:45;;;;;;;1.23;0.80;;;;;22.70;98425.00;;;;16581820;28;20238;-48
2022/10/15 10:40:51;;;;;;;1.93;0.70;;;;;22.20;98435.00;;;;16578008;28;20759;-48
2022/10/15 10:48:55;;;;;;;1.67;0.60;;;;;22.70;98438.00;;;;16569749;28;20255;-48
2022/10/15 10:57:00;;;;;;;2.30;1.03;;;;;22.50;98455.00;;;;16579063;28;20199;-48
2022/10/15 11:05:04;;;;;;;2.73;1.00;;;;;22.50;98450.00;;;;16580386;28;20242;-48
2022/10/15 11:13:19;;;;;;;3.03;1.10;;;;;22.10;98447.00;;;;16574769;28;20223;-47
2022/10/15 11:21:31;;;;;;;1.00;0.70;;;;;23.40;98437.00;;;;16567521;28;20250;-49
2022/10/15 11:29:40;;;;;;;1.37;0.97;;;;;23.00;98435.00;;;;16581934;28;20676;-49
2022/10/15 11:37:51;;;;;;;6.67;0.80;;;;;24.10;98418.00;;;;16560032;28;20218;-48
2022/10/15 11:46:00;;;;;;;1.10;0.90;;;;;23.60;98429.00;;;;16566002;28;20234;-48
2022/10/15 11:54:17;;;;;;;1.67;0.70;;;;;23.90;98413.00;;;;16574036;28;20233;-48
2022/10/15 12:02:22;;;;;;;2.13;1.10;;;;;23.50;98399.00;;;;16581238;28;20228;-48
2022/10/15 12:10:37;;;;;;;3.50;1.20;;;;;22.70;98402.00;;;;16564352;28;20223;-49
2022/10/15 12:18:45;;;;;;;3.53;1.00;;;;;22.20;98404.00;;;;16574539;28;20203;-49
2022/10/15 12:26:49;;;;;;;3.43;0.90;;;;;23.40;98393.00;;;;16575509;28;20238;-49
2022/10/15 12:34:55;;;;;;;1.43;0.83;;;;;22.50;98403.00;;;;16575294;28;20663;-48
2022/10/15 12:43:00;;;;;;;2.10;0.93;;;;;22.00;98411.00;;;;16562430;28;20242;-49
2022/10/15 12:51:34;;;;;;;1.60;0.80;;;;;21.80;98410.00;;;;16564061;28;20223;-49
2022/10/15 12:59:57;;;;;;;1.20;0.93;;;;;22.10;98383.00;;;;16567190;28;20318;-48
2022/10/15 13:08:01;;;;;;;2.10;1.20;;;;;21.90;98381.00;;;;16582718;28;20231;-48
2022/10/15 13:16:09;;;;;;;1.70;1.37;;;;;21.80;98388.00;;;;16581708;28;20227;-48
2022/10/15 13:24:12;;;;;;;3.07;1.00;;;;;22.00;98380.00;;;;16584531;28;20231;-49
2022/10/15 13:32:15;;;;;;;1.43;0.90;;;;;22.80;98405.00;;;;16577824;28;20231;-49
2022/10/15 13:40:22;;;;;;;1.40;1.00;;;;;22.70;98389.00;;;;16580389;28;20217;-48
2022/10/15 13:48:28;;;;;;;1.43;1.20;;;;;21.80;98405.00;;;;16583028;28;20223;-49
2022/10/15 13:56:32;;;;;;;2.97;1.97;;;;;21.70;98403.00;;;;16585972;28;20274;-49
2022/10/15 14:04:35;;;;;;;3.13;1.53;;;;;21.30;98393.00;;;;16576264;28;20215;-49
2022/10/15 14:12:38;;;;;;;2.50;1.20;;;;;21.50;98403.00;;;;16559210;28;20227;-48
2022/10/15 14:20:46;;;;;;;3.30;1.77;;;;;21.20;98411.00;;;;16570118;28;20318;-48
2022/10/15 14:28:51;;;;;;;3.43;1.47;;;;;21.40;98404.00;;;;16557452;28;20711;-48
2022/10/15 14:36:55;;;;;;;2.23;1.10;;;;;21.50;98406.00;;;;16566870;28;20819;-49
2022/10/15 14:44:57;;;;;;;5.33;1.30;;;;;21.60;98404.00;;;;16558653;28;20223;-49
2022/10/15 14:53:06;;;;;;;1.37;1.27;;;;;21.50;98387.00;;;;16554525;28;20258;-48
2022/10/15 15:01:08;;;;;;;2.07;1.50;;;;;21.80;98383.00;;;;16582450;28;20223;-49
2022/10/15 15:09:12;;;;;;;1.40;1.30;;;;;21.80;98380.00;;;;16564078;28;20223;-48
2022/10/15 15:17:17;;;;;;;4.93;1.53;;;;;22.10;98372.00;;;;16560083;28;20213;-49
2022/10/15 15:25:27;;;;;;;1.50;1.40;;;;;22.50;98391.00;;;;16565811;28;20215;-49
2022/10/15 15:33:29;;;;;;;3.57;1.30;;;;;22.50;98394.00;;;;16563119;28;20306;-48
2022/10/15 15:41:33;;;;;;;2.10;1.43;;;;;22.60;98389.00;;;;16566782;28;20277;-49
2022/10/15 15:49:36;;;;;;;3.10;2.90;;;;;22.70;98389.00;;;;16573247;28;20227;-47
2022/10/15 15:57:40;;;;;;;2.87;1.40;;;;;21.80;98400.00;;;;16589001;28;20730;-49
2022/10/15 16:05:43;;;;;;;1.50;1.40;;;;;21.70;98397.00;;;;16568661;28;20230;-49
2022/10/15 16:13:46;;;;;;;2.10;1.67;;;;;20.90;98412.00;;;;16575944;28;20234;-49
2022/10/15 16:21:49;;;;;;;2.83;1.40;;;;;20.50;98439.00;;;;16583906;28;20314;-48
2022/10/15 16:29:53;;;;;;;2.20;1.97;;;;;20.30;98449.00;;;;16583224;28;20309;-48
2022/10/15 16:37:55;;;;;;;1.80;1.40;;;;;20.40;98447.00;;;;16574507;28;20200;-48
2022/10/15 16:46:00;;;;;;;1.80;1.70;;;;;20.20;98464.00;;;;16572759;28;20211;-49
2022/10/15 16:54:02;;;;;;;2.80;2.60;;;;;20.20;98454.00;;;;16555290;28;20343;-48
2022/10/15 17:02:06;;;;;;;3.30;1.93;;;;;20.40;98472.00;;;;16568864;28;20211;-48
2022/10/15 17:10:09;;;;;;;2.23;1.50;;;;;20.50;98477.00;;;;16571187;28;20235;-49
2022/10/15 17:18:13;;;;;;;2.20;2.00;;;;;19.90;98502.00;;;;16581227;28;20202;-49
2022/10/15 17:26:17;;;;;;;2.70;1.70;;;;;20.20;98497.00;;;;16581408;28;20587;-48
2022/10/15 17:34:21;;;;;;;4.37;2.83;;;;;20.00;98513.00;;;;16573756;28;20227;-48
2022/10/15 17:42:24;;;;;;;1.30;1.20;;;;;19.90;98511.00;;;;16565670;28;20220;-49
2022/10/15 17:50:28;;;;;;;1.53;1.43;;;;;20.10;98512.00;;;;16557948;28;20228;-49
2022/10/15 17:58:31;;;;;;;3.03;1.60;;;;;20.10;98527.00;;;;16551822;28;20201;-49
2022/10/15 18:06:35;;;;;;;1.93;1.60;;;;;21.30;98540.00;;;;16547647;28;20234;-49
2022/10/15 18:14:37;;;;;;;3.30;2.10;;;;;20.30;98555.00;;;;16576250;28;20357;-48
2022/10/15 18:22:41;;;;;;;4.60;3.53;;;;;20.90;98551.00;;;;16579629;28;20290;-48
2022/10/15 18:30:43;;;;;;;2.23;1.80;;;;;20.60;98549.00;;;;16571821;28;20629;-48
2022/10/15 18:38:48;;;;;;;2.50;1.60;;;;;20.40;98552.00;;;;16557582;28;20392;-48
2022/10/15 18:46:51;;;;;;;5.30;2.00;;;;;20.30;98535.00;;;;16552177;28;20234;-49
2022/10/15 18:54:55;;;;;;;3.07;2.70;;;;;20.50;98535.00;;;;16562756;28;20707;-48
2022/10/15 19:02:57;;;;;;;1.23;1.13;;;;;20.60;98538.00;;;;16554528;28;20219;-49
2022/10/15 19:11:05;;;;;;;7.70;5.00;;;;;20.40;98551.00;;;;16564428;28;20332;-48
2022/10/15 19:19:08;;;;;;;5.23;4.00;;;;;20.60;98563.00;;;;16575691;28;20254;-48
2022/10/15 19:27:12;;;;;;;3.07;2.77;;;;;20.60;98571.00;;;;16571904;28;20376;-49
2022/10/15 19:35:14;;;;;;;2.53;1.23;;;;;20.40;98575.00;;;;16578049;28;20223;-49
2022/10/15 19:43:20;;;;;;;4.03;1.90;;;;;20.40;98571.00;;;;16570877;28;20223;-49
2022/10/15 19:51:22;;;;;;;1.63;1.53;;;;;20.50;98580.00;;;;16573386;28;20223;-49
2022/10/15 19:59:26;;;;;;;2.80;1.63;;;;;20.80;98571.00;;;;16576393;28;20765;-49
2022/10/15 20:07:29;;;;;;;4.07;3.00;;;;;20.80;98583.00;;;;16573379;28;20230;-48
2022/10/15 20:15:33;;;;;;;1.63;1.53;;;;;20.70;98604.00;;;;16570583;28;20309;-48
2022/10/15 20:23:37;;;;;;;3.03;2.80;;;;;20.40;98615.00;;;;16574350;28;20212;-49
2022/10/15 20:31:41;;;;;;;3.87;2.60;;;;;20.30;98641.00;;;;16570721;28;20715;-49
2022/10/15 20:39:43;;;;;;;3.17;1.77;;;;;20.30;98654.00;;;;16580321;28;20220;-48
2022/10/15 20:47:50;;;;;;;5.20;1.80;;;;;19.90;98656.00;;;;16579121;28;20216;-49
2022/10/15 20:55:52;;;;;;;2.90;2.10;;;;;20.10;98661.00;;;;16590607;28;20234;-48
2022/10/15 21:03:56;;;;;;;2.77;2.23;;;;;20.10;98664.00;;;;16578256;28;20306;-49
2022/10/15 21:11:58;;;;;;;4.23;1.83;;;;;20.20;98655.00;;;;16580804;28;20524;-49
2022/10/15 21:20:02;;;;;;;2.87;2.13;;;;;20.40;98669.00;;;;16589127;28;20829;-49
2022/10/15 21:28:05;;;;;;;3.23;1.83;;;;;20.30;98662.00;;;;16587159;28;20294;-49
2022/10/15 21:36:13;;;;;;;5.73;2.70;;;;;19.80;98670.00;;;;16563660;28;20301;-49
2022/10/15 21:44:16;;;;;;;7.77;1.93;;;;;18.90;98684.00;;;;16562780;28;20228;-48
2022/10/15 21:52:20;;;;;;;18.10;13.30;;;;;18.50;98696.00;;;;16584424;28;20246;-48
2022/10/15 22:00:23;;;;;;;9.37;2.97;;;;;18.40;98684.00;;;;16576363;28;20687;-47
2022/10/15 22:08:28;;;;;;;8.90;3.73;;;;;18.20;98677.00;;;;16560391;28;20220;-48
2022/10/15 22:16:32;;;;;;;10.53;2.10;;;;;17.80;98691.00;;;;16581448;28;20777;-48
2022/10/15 22:24:36;;;;;;;5.57;2.70;;;;;18.10;98693.00;;;;16580367;28;21307;-49
2022/10/15 22:32:39;;;;;;;5.73;2.47;;;;;18.40;98701.00;;;;16574479;28;20227;-49
2022/10/15 22:40:42;;;;;;;9.10;2.80;;;;;18.60;98712.00;;;;16556081;28;20307;-49
2022/10/15 22:48:48;;;;;;;3.20;2.17;;;;;19.00;98706.00;;;;16572571;28;20578;-49
2022/10/15 22:56:52;;;;;;;6.60;2.50;;;;;18.90;98714.00;;;;16560730;28;20203;-49
2022/10/15 23:04:54;;;;;;;6.83;1.97;;;;;18.50;98701.00;;;;16570315;28;20319;-48
2022/10/15 23:12:58;;;;;;;8.83;2.87;;;;;17.70;98712.00;;;;16570680;28;20362;-48
2022/10/15 23:21:04;;;;;;;3.27;2.50;;;;;17.60;98725.00;;;;16569399;28;20938;-49
2022/10/15 23:29:12;;;;;;;5.67;2.77;;;;;18.20;98723.00;;;;16576309;28;20314;-48
2022/10/15 23:37:14;;;;;;;5.27;3.17;;;;;17.90;98725.00;;;;16574244;28;20709;-49
2022/10/15 23:45:18;;;;;;;5.83;2.30;;;;;18.20;98717.00;;;;16574136;28;20646;-48
2022/10/15 23:53:20;;;;;;;6.23;2.30;;;;;17.80;98719.00;;;;16570666;28;20303;-49
